Time;durP1;ratioP1;P1;durP2;ratioP2;P2;SDS_P1;SDS_P2;PMS_P1;PMS_P2;Temp;Humidity;BMP_temperature;BMP_pressure;BME280_temperature;BME280_humidity;BME280_pressure;Samples;Min_cycle;Max_cycle;Signal;HPM_P1;HPM_P2
2022/09/22 00:01:35;;;;;;;;;;;;;;;;;;5074033;28;19932;-79
2022/09/22 00:04:03;;;;;;;;;;;;;;;;;;5091598;28;19959;-73
2022/09/22 00:06:30;;;;;;;;;;;;;;;;;;5083106;28;19928;-77
2022/09/22 00:08:59;;;;;;;;;;;;;;;;;;5081628;28;19934;-74
2022/09/22 00:11:27;;;;;;;;;;;;;;;;;;5082544;28;19935;-78
2022/09/22 00:13:54;;;;;;;;;;;;;;;;;;5086177;28;19924;-78
2022/09/22 00:16:21;;;;;;;;;;;;;;;;;;5088169;28;19928;-78
2022/09/22 00:18:48;;;;;;;;;;;;;;;;;;5082920;28;19932;-79
2022/09/22 00:21:15;;;;;;;;;;;;;;;;;;5082505;28;19948;-79
2022/09/22 00:23:42;;;;;;;;;;;;;;;;;;5081754;28;19930;-77
2022/09/22 00:26:09;;;;;;;;;;;;;;;;;;5076604;28;19928;-78
2022/09/22 00:28:36;;;;;;;;;;;;;;;;;;5081200;28;19936;-77
2022/09/22 00:31:04;;;;;;;;;;;;;;;;;;5085223;28;19928;-76
2022/09/22 00:33:31;;;;;;;;;;;;;;;;;;5075094;28;20511;-78
2022/09/22 00:35:58;;;;;;;;;;;;;;;;;;5086792;28;20382;-78
2022/09/22 00:38:25;;;;;;;;;;;;;;;;;;5070188;28;19929;-78
2022/09/22 00:40:52;;;;;;;;;;;;;;;;;;5073806;28;19924;-78
2022/09/22 00:43:19;;;;;;;;;;;;;;;;;;5077787;28;19928;-79
2022/09/22 00:45:46;;;;;;;;;;;;;;;;;;5077936;28;20398;-78
2022/09/22 00:48:13;;;;;;;;;;;;;;;;;;5079793;28;19935;-79
2022/09/22 00:50:40;;;;;;;;;;;;;;;;;;5079766;28;19932;-78
2022/09/22 00:53:07;;;;;;;;;;;;;;;;;;5092624;28;19928;-78
2022/09/22 00:55:34;;;;;;;;;;;;;;;;;;5091382;28;19981;-77
2022/09/22 00:58:01;;;;;;;;;;;;;;;;;;5086524;28;19927;-79
2022/09/22 01:00:28;;;;;;;;;;;;;;;;;;5078577;28;20570;-78
2022/09/22 01:02:56;;;;;;;;;;;;;;;;;;5083083;28;20346;-78
2022/09/22 01:05:23;;;;;;;;;;;;;;;;;;5079925;28;19925;-79
2022/09/22 01:07:50;;;;;;;;;;;;;;;;;;5084216;28;20020;-77
2022/09/22 01:10:17;;;;;;;;;;;;;;;;;;5079452;28;19928;-78
2022/09/22 01:12:44;;;;;;;;;;;;;;;;;;5078569;28;20042;-77
2022/09/22 01:15:11;;;;;;;;;;;;;;;;;;5091816;28;19928;-75
2022/09/22 01:17:38;;;;;;;;;;;;;;;;;;5081152;28;20320;-78
2022/09/22 01:20:05;;;;;;;;;;;;;;;;;;5092748;28;19928;-77
2022/09/22 01:22:32;;;;;;;;;;;;;;;;;;5087976;28;20425;-77
2022/09/22 01:24:59;;;;;;;;;;;;;;;;;;5077942;28;19924;-78
2022/09/22 01:27:26;;;;;;;;;;;;;;;;;;5082149;28;19950;-77
2022/09/22 01:29:53;;;;;;;;;;;;;;;;;;5084701;28;20320;-79
2022/09/22 01:32:20;;;;;;;;;;;;;;;;;;5086672;28;19935;-77
2022/09/22 01:34:47;;;;;;;;;;;;;;;;;;5083250;28;19930;-78
2022/09/22 01:37:14;;;;;;;;;;;;;;;;;;5074435;28;20021;-78
2022/09/22 01:39:42;;;;;;;;;;;;;;;;;;5079528;28;19935;-78
2022/09/22 01:42:09;;;;;;;;;;;;;;;;;;5084221;28;19932;-77
2022/09/22 01:44:36;;;;;;;;;;;;;;;;;;5080860;28;19963;-76
2022/09/22 01:47:03;;;;;;;;;;;;;;;;;;5077889;28;20112;-79
2022/09/22 01:49:30;;;;;;;;;;;;;;;;;;5072298;28;19970;-78
2022/09/22 01:51:58;;;;;;;;;;;;;;;;;;5076907;28;20420;-79
2022/09/22 01:54:25;;;;;;;;;;;;;;;;;;5086518;28;19932;-73
2022/09/22 01:56:52;;;;;;;;;;;;;;;;;;5079025;28;20367;-78
2022/09/22 01:59:19;;;;;;;;;;;;;;;;;;5076157;28;19985;-77
2022/09/22 02:01:46;;;;;;;;;;;;;;;;;;5078911;28;19924;-79
2022/09/22 02:04:13;;;;;;;;;;;;;;;;;;5079490;28;19924;-79
2022/09/22 02:06:40;;;;;;;;;;;;;;;;;;5078218;28;19936;-78
2022/09/22 02:09:07;;;;;;;;;;;;;;;;;;5085080;28;19931;-79
2022/09/22 02:11:34;;;;;;;;;;;;;;;;;;5078790;28;19924;-78
2022/09/22 02:14:01;;;;;;;;;;;;;;;;;;5079280;28;19947;-79
2022/09/22 02:16:28;;;;;;;;;;;;;;;;;;5077793;28;19932;-78
2022/09/22 02:18:55;;;;;;;;;;;;;;;;;;5081698;28;19940;-76
2022/09/22 02:21:22;;;;;;;;;;;;;;;;;;5077608;28;19924;-79
2022/09/22 02:23:49;;;;;;;;;;;;;;;;;;5077251;28;19929;-77
2022/09/22 02:26:16;;;;;;;;;;;;;;;;;;5081549;28;19939;-78
2022/09/22 02:28:43;;;;;;;;;;;;;;;;;;5077295;28;20390;-77
2022/09/22 02:31:10;;;;;;;;;;;;;;;;;;5078554;28;20381;-78
2022/09/22 02:33:37;;;;;;;;;;;;;;;;;;5073390;28;19932;-78
2022/09/22 02:36:04;;;;;;;;;;;;;;;;;;5070017;28;19931;-77
2022/09/22 02:38:31;;;;;;;;;;;;;;;;;;5075455;28;19928;-78
2022/09/22 02:40:59;;;;;;;;;;;;;;;;;;5075024;28;20360;-78
2022/09/22 02:43:26;;;;;;;;;;;;;;;;;;5079292;28;19932;-78
2022/09/22 02:45:53;;;;;;;;;;;;;;;;;;5074030;28;19932;-78
2022/09/22 02:48:20;;;;;;;;;;;;;;;;;;5072953;28;19928;-77
2022/09/22 02:50:47;;;;;;;;;;;;;;;;;;5072663;28;19986;-77
2022/09/22 02:53:14;;;;;;;;;;;;;;;;;;5075351;28;19943;-77
2022/09/22 02:55:41;;;;;;;;;;;;;;;;;;5077127;28;19985;-79
2022/09/22 02:58:08;;;;;;;;;;;;;;;;;;5073599;28;19924;-75
2022/09/22 03:00:36;;;;;;;;;;;;;;;;;;5075076;28;19932;-76
2022/09/22 03:03:03;;;;;;;;;;;;;;;;;;5071460;28;20383;-79
2022/09/22 03:05:30;;;;;;;;;;;;;;;;;;5070746;28;19935;-79
2022/09/22 03:07:57;;;;;;;;;;;;;;;;;;5072483;28;20075;-75
2022/09/22 03:10:24;;;;;;;;;;;;;;;;;;5073465;28;19924;-75
2022/09/22 03:12:51;;;;;;;;;;;;;;;;;;5074265;28;19939;-78
2022/09/22 03:15:18;;;;;;;;;;;;;;;;;;5074392;28;19932;-74
2022/09/22 03:17:46;;;;;;;;;;;;;;;;;;5079332;28;19931;-78
2022/09/22 03:20:14;;;;;;;;;;;;;;;;;;5077344;28;19935;-76
2022/09/22 03:22:41;;;;;;;;;;;;;;;;;;5077284;28;20281;-78
2022/09/22 03:25:08;;;;;;;;;;;;;;;;;;5075594;28;19928;-77
2022/09/22 03:27:35;;;;;;;;;;;;;;;;;;5080713;28;19934;-75
2022/09/22 03:30:03;;;;;;;;;;;;;;;;;;5077367;28;20045;-77
2022/09/22 03:32:30;;;;;;;;;;;;;;;;;;5079248;28;20001;-77
2022/09/22 03:34:57;;;;;;;;;;;;;;;;;;5075007;28;19929;-78
2022/09/22 03:37:24;;;;;;;;;;;;;;;;;;5074673;28;19924;-78
2022/09/22 03:39:51;;;;;;;;;;;;;;;;;;5078654;28;19936;-73
2022/09/22 03:42:18;;;;;;;;;;;;;;;;;;5076675;28;20653;-77
2022/09/22 03:44:45;;;;;;;;;;;;;;;;;;5070939;28;20566;-75
2022/09/22 03:47:12;;;;;;;;;;;;;;;;;;5076076;28;19978;-79
2022/09/22 03:49:39;;;;;;;;;;;;;;;;;;5080635;28;19928;-77
2022/09/22 03:52:06;;;;;;;;;;;;;;;;;;5082173;28;19932;-76
2022/09/22 03:54:34;;;;;;;;;;;;;;;;;;5077076;28;20188;-79
2022/09/22 03:57:01;;;;;;;;;;;;;;;;;;5078963;28;19979;-73
2022/09/22 03:59:28;;;;;;;;;;;;;;;;;;5076968;28;19932;-73
2022/09/22 04:01:55;;;;;;;;;;;;;;;;;;5090001;28;19932;-76
2022/09/22 04:04:22;;;;;;;;;;;;;;;;;;5083826;28;19965;-76
2022/09/22 04:06:49;;;;;;;;;;;;;;;;;;5082065;28;19931;-78
2022/09/22 04:09:17;;;;;;;;;;;;;;;;;;5078328;28;19928;-77
2022/09/22 04:11:44;;;;;;;;;;;;;;;;;;5082378;28;19932;-77
2022/09/22 04:14:11;;;;;;;;;;;;;;;;;;5088693;28;19955;-74
2022/09/22 04:16:41;;;;;;;;;;;;;;;;;;5082596;28;19950;-76
2022/09/22 04:19:08;;;;;;;;;;;;;;;;;;5082638;28;19928;-77
2022/09/22 04:21:35;;;;;;;;;;;;;;;;;;5081879;28;19929;-78
2022/09/22 04:24:02;;;;;;;;;;;;;;;;;;5078022;28;19932;-76
2022/09/22 04:26:29;;;;;;;;;;;;;;;;;;5089161;28;19928;-78
2022/09/22 04:28:56;;;;;;;;;;;;;;;;;;5093105;28;20290;-73
2022/09/22 04:31:23;;;;;;;;;;;;;;;;;;5090646;28;19931;-77
2022/09/22 04:33:51;;;;;;;;;;;;;;;;;;5081843;28;19932;-76
2022/09/22 04:36:18;;;;;;;;;;;;;;;;;;5085942;28;19932;-74
2022/09/22 04:38:45;;;;;;;;;;;;;;;;;;5085918;28;19924;-75
2022/09/22 04:41:12;;;;;;;;;;;;;;;;;;5085600;28;19932;-78
2022/09/22 04:43:39;;;;;;;;;;;;;;;;;;5086747;28;19977;-77
2022/09/22 04:46:06;;;;;;;;;;;;;;;;;;5087598;28;19968;-76
2022/09/22 04:48:33;;;;;;;;;;;;;;;;;;5094794;28;19971;-79
2022/09/22 04:51:00;;;;;;;;;;;;;;;;;;5097620;28;20410;-77
2022/09/22 04:53:27;;;;;;;;;;;;;;;;;;5091847;28;19935;-78
2022/09/22 04:55:55;;;;;;;;;;;;;;;;;;5099088;28;20271;-78
2022/09/22 04:58:22;;;;;;;;;;;;;;;;;;5093997;28;20030;-77
2022/09/22 05:00:49;;;;;;;;;;;;;;;;;;5095989;28;19924;-77
2022/09/22 05:03:17;;;;;;;;;;;;;;;;;;5093081;28;19928;-76
2022/09/22 05:05:44;;;;;;;;;;;;;;;;;;5091720;28;20006;-78
2022/09/22 05:08:11;;;;;;;;;;;;;;;;;;5090806;28;19931;-75
2022/09/22 05:10:38;;;;;;;;;;;;;;;;;;5094355;28;20055;-77
2022/09/22 05:13:05;;;;;;;;;;;;;;;;;;5097106;28;19928;-73
2022/09/22 05:15:33;;;;;;;;;;;;;;;;;;5098576;28;19928;-77
2022/09/22 05:18:00;;;;;;;;;;;;;;;;;;5109005;28;19992;-76
2022/09/22 05:20:27;;;;;;;;;;;;;;;;;;5096726;28;19992;-78
2022/09/22 05:22:54;;;;;;;;;;;;;;;;;;5100970;28;19932;-77
2022/09/22 05:25:21;;;;;;;;;;;;;;;;;;5077354;28;20023;-74
2022/09/22 05:27:48;;;;;;;;;;;;;;;;;;5076104;28;20437;-79
2022/09/22 05:30:15;;;;;;;;;;;;;;;;;;5082402;28;19935;-77
2022/09/22 05:32:43;;;;;;;;;;;;;;;;;;5073560;28;19980;-77
2022/09/22 05:35:10;;;;;;;;;;;;;;;;;;5084076;28;19924;-76
2022/09/22 05:37:37;;;;;;;;;;;;;;;;;;5099923;28;19929;-77
2022/09/22 05:40:05;;;;;;;;;;;;;;;;;;5101031;28;19932;-74
2022/09/22 05:42:32;;;;;;;;;;;;;;;;;;5106403;28;19985;-78
2022/09/22 05:44:59;;;;;;;;;;;;;;;;;;5102654;28;19912;-74
2022/09/22 05:47:26;;;;;;;;;;;;;;;;;;5101268;28;19968;-75
2022/09/22 05:49:53;;;;;;;;;;;;;;;;;;5104414;28;19928;-74
2022/09/22 05:52:20;;;;;;;;;;;;;;;;;;5101555;28;19932;-74
2022/09/22 05:54:47;;;;;;;;;;;;;;;;;;5104432;28;20448;-72
2022/09/22 05:57:14;;;;;;;;;;;;;;;;;;5102514;28;19928;-72
2022/09/22 05:59:41;;;;;;;;;;;;;;;;;;5103938;28;19981;-72
2022/09/22 06:02:10;;;;;;;;;;;;;;;;;;5103971;28;19920;-72
2022/09/22 06:04:37;;;;;;;;;;;;;;;;;;5102984;28;19926;-73
2022/09/22 06:07:05;;;;;;;;;;;;;;;;;;5103943;28;19928;-72
2022/09/22 06:09:32;;;;;;;;;;;;;;;;;;5107730;28;20737;-75
2022/09/22 06:11:59;;;;;;;;;;;;;;;;;;5103551;28;19924;-76
2022/09/22 06:14:26;;;;;;;;;;;;;;;;;;5108656;28;19928;-77
2022/09/22 06:16:53;;;;;;;;;;;;;;;;;;5099443;28;19931;-76
2022/09/22 06:19:22;;;;;;;;;;;;;;;;;;5104372;28;19950;-74
2022/09/22 06:21:49;;;;;;;;;;;;;;;;;;5108138;28;19943;-75
2022/09/22 06:24:16;;;;;;;;;;;;;;;;;;5110603;28;19932;-75
2022/09/22 06:26:43;;;;;;;;;;;;;;;;;;5103475;28;19912;-76
2022/09/22 06:29:10;;;;;;;;;;;;;;;;;;5105545;28;19928;-78
2022/09/22 06:31:37;;;;;;;;;;;;;;;;;;5110364;28;19912;-72
2022/09/22 06:34:04;;;;;;;;;;;;;;;;;;5107349;28;19936;-78
2022/09/22 06:36:31;;;;;;;;;;;;;;;;;;5105075;28;19924;-78
2022/09/22 06:38:58;;;;;;;;;;;;;;;;;;5100999;28;19937;-76
2022/09/22 06:41:25;;;;;;;;;;;;;;;;;;5087613;28;19928;-78
2022/09/22 06:43:54;;;;;;;;;;;;;;;;;;5090033;28;19935;-74
2022/09/22 06:46:22;;;;;;;;;;;;;;;;;;5088203;28;19924;-76
2022/09/22 06:48:49;;;;;;;;;;;;;;;;;;5077148;28;19928;-77
2022/09/22 06:51:16;;;;;;;;;;;;;;;;;;5070970;28;19935;-74
2022/09/22 06:53:46;;;;;;;;;;;;;;;;;;5080394;28;19935;-75
2022/09/22 06:56:13;;;;;;;;;;;;;;;;;;5075515;28;19924;-76
2022/09/22 06:58:43;;;;;;;;;;;;;;;;;;5079515;28;19924;-78
2022/09/22 07:01:10;;;;;;;;;;;;;;;;;;5072508;28;20025;-77
2022/09/22 07:03:41;;;;;;;;;;;;;;;;;;5075024;28;19929;-76
2022/09/22 07:06:09;;;;;;;;;;;;;;;;;;5070395;28;20010;-76
2022/09/22 07:08:38;;;;;;;;;;;;;;;;;;5073160;28;19936;-75
2022/09/22 07:11:06;;;;;;;;;;;;;;;;;;5072012;28;19939;-75
2022/09/22 07:13:35;;;;;;;;;;;;;;;;;;5078663;28;19990;-79
2022/09/22 07:16:02;;;;;;;;;;;;;;;;;;5077455;28;19928;-79
2022/09/22 07:18:30;;;;;;;;;;;;;;;;;;5079447;28;20334;-75
2022/09/22 07:20:57;;;;;;;;;;;;;;;;;;5088240;28;19928;-79
2022/09/22 07:23:24;;;;;;;;;;;;;;;;;;5082847;28;19932;-77
2022/09/22 07:25:51;;;;;;;;;;;;;;;;;;5074395;28;19924;-77
2022/09/22 07:28:18;;;;;;;;;;;;;;;;;;5079211;28;19932;-78
2022/09/22 07:30:46;;;;;;;;;;;;;;;;;;5082727;28;20367;-75
2022/09/22 07:33:13;;;;;;;;;;;;;;;;;;5082315;28;19928;-76
2022/09/22 07:35:40;;;;;;;;;;;;;;;;;;5084949;28;19931;-76
2022/09/22 07:38:07;;;;;;;;;;;;;;;;;;5082033;28;19928;-77
2022/09/22 07:40:34;;;;;;;;;;;;;;;;;;5079000;28;19978;-75
2022/09/22 07:43:01;;;;;;;;;;;;;;;;;;5079249;28;19932;-76
2022/09/22 07:45:28;;;;;;;;;;;;;;;;;;5083372;28;19932;-77
2022/09/22 07:50:42;;;;;;;;;;;;;;;;;;5047423;28;19930;-75
2022/09/22 07:53:09;;;;;;;;;;;;;;;;;;5080276;28;19946;-76
2022/09/22 07:55:37;;;;;;;;;;;;;;;;;;5081221;28;19935;-77
2022/09/22 07:58:04;;;;;;;;;;;;;;;;;;5077247;28;19932;-78
2022/09/22 08:00:33;;;;;;;;;;;;;;;;;;5083310;28;19927;-77
2022/09/22 08:03:00;;;;;;;;;;;;;;;;;;5082490;28;19935;-79
2022/09/22 08:05:27;;;;;;;;;;;;;;;;;;5083441;28;19932;-75
2022/09/22 08:07:56;;;;;;;;;;;;;;;;;;5083511;28;19928;-76
2022/09/22 08:10:23;;;;;;;;;;;;;;;;;;5081170;28;19932;-77
2022/09/22 08:12:50;;;;;;;;;;;;;;;;;;5081649;28;20405;-76
2022/09/22 08:15:17;;;;;;;;;;;;;;;;;;5077069;28;19982;-78
2022/09/22 08:17:44;;;;;;;;;;;;;;;;;;5080376;28;20016;-78
2022/09/22 08:20:12;;;;;;;;;;;;;;;;;;5083337;28;20001;-79
2022/09/22 08:22:42;;;;;;;;;;;;;;;;;;5077930;28;19939;-76
2022/09/22 08:25:11;;;;;;;;;;;;;;;;;;5088657;28;20748;-78
2022/09/22 08:27:38;;;;;;;;;;;;;;;;;;5087590;28;20744;-78
2022/09/22 08:30:06;;;;;;;;;;;;;;;;;;5090202;28;20428;-77
2022/09/22 08:32:34;;;;;;;;;;;;;;;;;;5085347;28;19928;-78
2022/09/22 08:35:02;;;;;;;;;;;;;;;;;;5089570;28;19954;-77
2022/09/22 08:37:31;;;;;;;;;;;;;;;;;;5089088;28;19928;-76
2022/09/22 08:39:58;;;;;;;;;;;;;;;;;;5086558;28;19934;-77
2022/09/22 08:42:27;;;;;;;;;;;;;;;;;;5086184;28;19928;-78
2022/09/22 08:44:55;;;;;;;;;;;;;;;;;;5083203;28;20023;-74
2022/09/22 08:51:50;;;;;;;;;;;;;;;;;;5087122;28;19985;-78
2022/09/22 08:52:54;;;;;;;;;;;;;;;;;;5083983;28;19920;-75
2022/09/22 08:55:21;;;;;;;;;;;;;;;;;;5088939;28;19928;-77
2022/09/22 08:57:50;;;;;;;;;;;;;;;;;;5086270;28;19932;-78
2022/09/22 09:00:17;;;;;;;;;;;;;;;;;;5087208;28;19985;-78
2022/09/22 09:02:44;;;;;;;;;;;;;;;;;;5089659;28;19924;-77
2022/09/22 09:05:11;;;;;;;;;;;;;;;;;;5082248;28;19932;-74
2022/09/22 09:07:42;;;;;;;;;;;;;;;;;;5080785;28;19955;-76
2022/09/22 09:10:09;;;;;;;;;;;;;;;;;;5089523;28;19939;-77
2022/09/22 09:12:36;;;;;;;;;;;;;;;;;;5086449;28;20319;-78
2022/09/22 09:15:03;;;;;;;;;;;;;;;;;;5085785;28;20039;-80
2022/09/22 09:17:31;;;;;;;;;;;;;;;;;;5087352;28;20445;-78
2022/09/22 09:19:58;;;;;;;;;;;;;;;;;;5083121;28;19925;-79
2022/09/22 09:22:25;;;;;;;;;;;;;;;;;;5087766;28;19935;-77
2022/09/22 09:24:52;;;;;;;;;;;;;;;;;;5078024;28;19928;-80
2022/09/22 09:27:20;;;;;;;;;;;;;;;;;;5082689;28;19932;-80
2022/09/22 09:29:47;;;;;;;;;;;;;;;;;;5085570;28;19924;-77
2022/09/22 09:32:14;;;;;;;;;;;;;;;;;;5081420;28;19931;-79
2022/09/22 09:34:42;;;;;;;;;;;;;;;;;;5083169;28;19924;-77
2022/09/22 09:37:09;;;;;;;;;;;;;;;;;;5087959;28;20302;-79
2022/09/22 09:39:36;;;;;;;;;;;;;;;;;;5088518;28;19999;-78
2022/09/22 09:42:03;;;;;;;;;;;;;;;;;;5083031;28;19935;-79
2022/09/22 09:44:30;;;;;;;;;;;;;;;;;;5089263;28;19932;-77
2022/09/22 09:46:57;;;;;;;;;;;;;;;;;;5081688;28;20504;-77
2022/09/22 09:49:24;;;;;;;;;;;;;;;;;;5090775;28;19931;-78
2022/09/22 09:51:51;;;;;;;;;;;;;;;;;;5091715;28;19925;-78
2022/09/22 09:54:18;;;;;;;;;;;;;;;;;;5088054;28;19928;-77
2022/09/22 09:56:45;;;;;;;;;;;;;;;;;;5085638;28;19943;-79
2022/09/22 10:01:57;;;;;;;;;;;;;;;;;;5081681;28;19931;-77
2022/09/22 10:04:24;;;;;;;;;;;;;;;;;;5076342;28;19924;-78
2022/09/22 10:06:51;;;;;;;;;;;;;;;;;;5082552;28;20298;-77
2022/09/22 10:09:18;;;;;;;;;;;;;;;;;;5095167;28;19928;-77
2022/09/22 10:11:45;;;;;;;;;;;;;;;;;;5089666;28;19932;-78
2022/09/22 10:14:12;;;;;;;;;;;;;;;;;;5082334;28;19936;-78
2022/09/22 10:16:39;;;;;;;;;;;;;;;;;;5079730;28;20343;-78
2022/09/22 10:19:06;;;;;;;;;;;;;;;;;;5090358;28;19939;-76
2022/09/22 10:21:36;;;;;;;;;;;;;;;;;;5086141;28;20354;-76
2022/09/22 10:24:03;;;;;;;;;;;;;;;;;;5089437;28;19968;-77
2022/09/22 10:26:30;;;;;;;;;;;;;;;;;;5095460;28;20328;-78
2022/09/22 10:28:57;;;;;;;;;;;;;;;;;;5087862;28;19971;-78
2022/09/22 10:31:24;;;;;;;;;;;;;;;;;;5089113;28;19928;-77
2022/09/22 10:33:51;;;;;;;;;;;;;;;;;;5089948;28;19997;-76
2022/09/22 10:36:18;;;;;;;;;;;;;;;;;;5093451;28;19949;-77
2022/09/22 10:38:45;;;;;;;;;;;;;;;;;;5094644;28;19939;-78
2022/09/22 10:41:12;;;;;;;;;;;;;;;;;;5085601;28;20598;-78
2022/09/22 10:43:39;;;;;;;;;;;;;;;;;;5082224;28;20310;-78
2022/09/22 10:46:07;;;;;;;;;;;;;;;;;;5088153;28;19935;-78
2022/09/22 10:48:34;;;;;;;;;;;;;;;;;;5083169;28;20039;-74
2022/09/22 10:51:01;;;;;;;;;;;;;;;;;;5079364;28;19932;-79
2022/09/22 10:53:28;;;;;;;;;;;;;;;;;;5082888;28;19931;-78
2022/09/22 10:55:55;;;;;;;;;;;;;;;;;;5085072;28;20711;-75
2022/09/22 10:58:22;;;;;;;;;;;;;;;;;;5082798;28;19936;-76
2022/09/22 11:00:49;;;;;;;;;;;;;;;;;;5077942;28;19934;-76
2022/09/22 11:03:16;;;;;;;;;;;;;;;;;;5077387;28;19979;-74
2022/09/22 11:13:57;;;;;;;;;;;;;;;;;;5079855;28;20302;-76
2022/09/22 11:16:26;;;;;;;;;;;;;;;;;;5075633;28;19928;-77
2022/09/22 11:18:54;;;;;;;;;;;;;;;;;;5081504;28;20014;-79
2022/09/22 11:21:21;;;;;;;;;;;;;;;;;;5082798;28;20310;-77
2022/09/22 11:23:48;;;;;;;;;;;;;;;;;;5085820;28;19923;-76
2022/09/22 11:26:15;;;;;;;;;;;;;;;;;;5078861;28;19928;-76
2022/09/22 11:28:43;;;;;;;;;;;;;;;;;;5086146;28;19924;-78
2022/09/22 11:31:10;;;;;;;;;;;;;;;;;;5079693;28;19928;-78
2022/09/22 11:33:37;;;;;;;;;;;;;;;;;;5073761;28;19978;-77
2022/09/22 11:36:04;;;;;;;;;;;;;;;;;;5079374;28;19928;-77
2022/09/22 11:38:31;;;;;;;;;;;;;;;;;;5075848;28;19928;-78
2022/09/22 11:40:59;;;;;;;;;;;;;;;;;;5076919;28;20349;-78
2022/09/22 11:43:27;;;;;;;;;;;;;;;;;;5062588;28;20122;-76
2022/09/22 11:45:54;;;;;;;;;;;;;;;;;;5066471;28;19935;-78
2022/09/22 11:48:21;;;;;;;;;;;;;;;;;;5082291;28;20360;-75
2022/09/22 11:50:48;;;;;;;;;;;;;;;;;;5084710;28;19935;-78
2022/09/22 11:53:15;;;;;;;;;;;;;;;;;;5083825;28;20414;-75
2022/09/22 11:55:42;;;;;;;;;;;;;;;;;;5066593;28;19924;-78
2022/09/22 11:58:10;;;;;;;;;;;;;;;;;;5086000;28;19932;-79
2022/09/22 12:00:37;;;;;;;;;;;;;;;;;;5067168;28;19927;-76
2022/09/22 12:03:04;;;;;;;;;;;;;;;;;;5070346;28;19952;-80
2022/09/22 12:05:31;;;;;;;;;;;;;;;;;;5067557;28;19935;-77
2022/09/22 12:07:58;;;;;;;;;;;;;;;;;;5081680;28;19924;-79
2022/09/22 12:10:25;;;;;;;;;;;;;;;;;;5086268;28;19935;-78
2022/09/22 12:12:52;;;;;;;;;;;;;;;;;;5064261;28;19932;-76
2022/09/22 12:15:19;;;;;;;;;;;;;;;;;;5059568;28;20700;-77
2022/09/22 12:17:46;;;;;;;;;;;;;;;;;;5064380;28;19928;-77
2022/09/22 12:20:13;;;;;;;;;;;;;;;;;;5055161;28;19977;-77
2022/09/22 12:22:40;;;;;;;;;;;;;;;;;;5058550;28;20552;-77
2022/09/22 12:25:07;;;;;;;;;;;;;;;;;;5075148;28;20042;-78
2022/09/22 12:27:34;;;;;;;;;;;;;;;;;;5057895;28;19928;-76
2022/09/22 12:30:01;;;;;;;;;;;;;;;;;;5061672;28;20038;-80
2022/09/22 12:32:28;;;;;;;;;;;;;;;;;;5081290;28;19928;-79
2022/09/22 12:34:56;;;;;;;;;;;;;;;;;;5060857;28;19932;-77
2022/09/22 12:37:23;;;;;;;;;;;;;;;;;;5082451;28;20014;-76
2022/09/22 12:39:50;;;;;;;;;;;;;;;;;;5087430;28;19932;-77
2022/09/22 12:42:17;;;;;;;;;;;;;;;;;;5066291;28;19954;-78
2022/09/22 12:44:44;;;;;;;;;;;;;;;;;;5081103;28;19924;-79
2022/09/22 12:47:11;;;;;;;;;;;;;;;;;;5087293;28;19947;-74
2022/09/22 12:49:38;;;;;;;;;;;;;;;;;;5075252;28;20387;-74
2022/09/22 12:52:06;;;;;;;;;;;;;;;;;;5087364;28;19932;-76
2022/09/22 12:54:33;;;;;;;;;;;;;;;;;;5087501;28;20364;-76
2022/09/22 12:57:00;;;;;;;;;;;;;;;;;;5084474;28;20393;-78
2022/09/22 12:59:27;;;;;;;;;;;;;;;;;;5087311;28;19928;-79
2022/09/22 13:01:54;;;;;;;;;;;;;;;;;;5081772;28;19924;-76
2022/09/22 13:04:21;;;;;;;;;;;;;;;;;;5082251;28;19931;-76
2022/09/22 13:06:48;;;;;;;;;;;;;;;;;;5087050;28;19932;-78
2022/09/22 13:09:15;;;;;;;;;;;;;;;;;;5083526;28;19932;-78
2022/09/22 13:11:42;;;;;;;;;;;;;;;;;;5083558;28;19932;-76
2022/09/22 13:14:09;;;;;;;;;;;;;;;;;;5081222;28;19932;-76
2022/09/22 13:16:36;;;;;;;;;;;;;;;;;;5082814;28;19950;-74
2022/09/22 13:19:03;;;;;;;;;;;;;;;;;;5076829;28;19925;-77
2022/09/22 13:21:30;;;;;;;;;;;;;;;;;;5083935;28;19928;-78
2022/09/22 13:23:57;;;;;;;;;;;;;;;;;;5072886;28;19932;-76
2022/09/22 13:26:24;;;;;;;;;;;;;;;;;;5084340;28;19924;-77
2022/09/22 13:28:52;;;;;;;;;;;;;;;;;;5077588;28;20369;-76
2022/09/22 13:31:19;;;;;;;;;;;;;;;;;;5084168;28;19970;-76
2022/09/22 13:33:46;;;;;;;;;;;;;;;;;;5084512;28;19932;-78
2022/09/22 13:36:13;;;;;;;;;;;;;;;;;;5083266;28;19939;-75
2022/09/22 13:38:40;;;;;;;;;;;;;;;;;;5086792;28;19932;-80
2022/09/22 13:41:07;;;;;;;;;;;;;;;;;;5083299;28;20382;-79
2022/09/22 13:43:34;;;;;;;;;;;;;;;;;;5065998;28;19939;-79
2022/09/22 13:46:01;;;;;;;;;;;;;;;;;;5062701;28;20028;-74
2022/09/22 13:48:28;;;;;;;;;;;;;;;;;;5083240;28;19928;-77
2022/09/22 13:50:55;;;;;;;;;;;;;;;;;;5065829;28;19932;-75
2022/09/22 13:53:22;;;;;;;;;;;;;;;;;;5084813;28;19924;-75
2022/09/22 13:55:49;;;;;;;;;;;;;;;;;;5064778;28;19955;-82
2022/09/22 13:58:18;;;;;;;;;;;;;;;;;;5067156;28;19932;-77
2022/09/22 14:00:45;;;;;;;;;;;;;;;;;;5062614;28;19928;-76
2022/09/22 14:03:12;;;;;;;;;;;;;;;;;;5084801;28;19932;-75
2022/09/22 14:05:39;;;;;;;;;;;;;;;;;;5064506;28;19924;-81
2022/09/22 14:08:06;;;;;;;;;;;;;;;;;;5085987;28;19924;-74
2022/09/22 14:10:33;;;;;;;;;;;;;;;;;;5065993;28;19935;-80
2022/09/22 14:13:00;;;;;;;;;;;;;;;;;;5059068;28;19928;-75
2022/09/22 14:15:27;;;;;;;;;;;;;;;;;;5062119;28;20394;-79
2022/09/22 14:17:54;;;;;;;;;;;;;;;;;;5060341;28;19985;-80
2022/09/22 14:20:21;;;;;;;;;;;;;;;;;;5067134;28;19938;-79
2022/09/22 14:22:48;;;;;;;;;;;;;;;;;;5059335;28;19924;-81
2022/09/22 14:25:18;;;;;;;;;;;;;;;;;;5069700;28;20547;-80
2022/09/22 14:27:45;;;;;;;;;;;;;;;;;;5065028;28;20417;-79
2022/09/22 14:30:12;;;;;;;;;;;;;;;;;;5066036;28;20305;-78
2022/09/22 14:32:39;;;;;;;;;;;;;;;;;;5060141;28;19968;-81
2022/09/22 14:35:06;;;;;;;;;;;;;;;;;;5059813;28;19982;-77
2022/09/22 14:37:33;;;;;;;;;;;;;;;;;;5060599;28;19928;-79
2022/09/22 14:40:00;;;;;;;;;;;;;;;;;;5057669;28;19943;-78
2022/09/22 14:42:28;;;;;;;;;;;;;;;;;;5062187;28;20795;-80
2022/09/22 14:44:55;;;;;;;;;;;;;;;;;;5061457;28;20858;-79
2022/09/22 14:47:23;;;;;;;;;;;;;;;;;;5063650;28;20462;-81
2022/09/22 14:49:49;;;;;;;;;;;;;;;;;;5063450;28;20015;-80
2022/09/22 14:52:17;;;;;;;;;;;;;;;;;;5067146;28;20056;-80
2022/09/22 14:54:44;;;;;;;;;;;;;;;;;;5068994;28;20019;-75
2022/09/22 14:57:11;;;;;;;;;;;;;;;;;;5066304;28;19967;-78
2022/09/22 15:02:32;;;;;;;;;;;;;;;;;;5064844;28;20035;-77
2022/09/22 15:05:02;;;;;;;;;;;;;;;;;;5089945;28;19928;-79
2022/09/22 15:07:29;;;;;;;;;;;;;;;;;;5068088;28;19939;-79
2022/09/22 15:09:56;;;;;;;;;;;;;;;;;;5069355;28;19973;-81
2022/09/22 15:12:23;;;;;;;;;;;;;;;;;;5068411;28;20018;-79
2022/09/22 15:14:50;;;;;;;;;;;;;;;;;;5088629;28;19971;-81
2022/09/22 15:20:04;;;;;;;;;;;;;;;;;;5062731;28;20016;-80
2022/09/22 15:22:31;;;;;;;;;;;;;;;;;;5072805;28;19931;-80
2022/09/22 15:24:58;;;;;;;;;;;;;;;;;;5068311;28;19932;-80
2022/09/22 15:27:25;;;;;;;;;;;;;;;;;;5069410;28;19932;-75
2022/09/22 15:29:56;;;;;;;;;;;;;;;;;;5089368;28;19985;-81
2022/09/22 15:32:23;;;;;;;;;;;;;;;;;;5067768;28;20014;-79
2022/09/22 15:34:50;;;;;;;;;;;;;;;;;;5070986;28;20387;-78
2022/09/22 15:37:18;;;;;;;;;;;;;;;;;;5071380;28;19932;-81
2022/09/22 15:39:45;;;;;;;;;;;;;;;;;;5082997;28;19969;-80
2022/09/22 15:42:12;;;;;;;;;;;;;;;;;;5072008;28;20123;-78
2022/09/22 15:44:39;;;;;;;;;;;;;;;;;;5082462;28;19924;-81
2022/09/22 15:47:06;;;;;;;;;;;;;;;;;;5085578;28;19928;-81
2022/09/22 15:49:33;;;;;;;;;;;;;;;;;;5080148;28;19928;-80
2022/09/22 15:52:03;;;;;;;;;;;;;;;;;;5080758;28;20504;-80
2022/09/22 15:54:30;;;;;;;;;;;;;;;;;;5078361;28;19936;-81
2022/09/22 15:56:58;;;;;;;;;;;;;;;;;;5078978;28;19932;-78
2022/09/22 15:59:26;;;;;;;;;;;;;;;;;;5078960;28;19925;-81
2022/09/22 16:01:55;;;;;;;;;;;;;;;;;;5078124;28;19946;-81
2022/09/22 16:04:22;;;;;;;;;;;;;;;;;;5077175;28;19929;-78
2022/09/22 16:06:49;;;;;;;;;;;;;;;;;;5080210;28;19931;-81
2022/09/22 16:09:16;;;;;;;;;;;;;;;;;;5088258;28;19928;-79
2022/09/22 16:11:43;;;;;;;;;;;;;;;;;;5084177;28;19939;-81
2022/09/22 16:14:10;;;;;;;;;;;;;;;;;;5085850;28;19975;-77
2022/09/22 16:16:37;;;;;;;;;;;;;;;;;;5088104;28;19986;-78
2022/09/22 16:19:06;;;;;;;;;;;;;;;;;;5084629;28;19928;-82
2022/09/22 16:21:33;;;;;;;;;;;;;;;;;;5082531;28;19970;-79
2022/09/22 16:24:00;;;;;;;;;;;;;;;;;;5088570;28;19930;-81
2022/09/22 16:26:28;;;;;;;;;;;;;;;;;;5082107;28;19928;-78
2022/09/22 16:28:55;;;;;;;;;;;;;;;;;;5091089;28;19924;-78
2022/09/22 16:31:22;;;;;;;;;;;;;;;;;;5086190;28;19943;-81
2022/09/22 16:33:49;;;;;;;;;;;;;;;;;;5085848;28;19924;-80
2022/09/22 16:36:16;;;;;;;;;;;;;;;;;;5076287;28;19932;-72
2022/09/22 16:38:43;;;;;;;;;;;;;;;;;;5086313;28;19936;-81
2022/09/22 16:41:10;;;;;;;;;;;;;;;;;;5086396;28;20080;-77
2022/09/22 16:43:37;;;;;;;;;;;;;;;;;;5086778;28;19958;-78
2022/09/22 16:48:49;;;;;;;;;;;;;;;;;;5085018;28;19935;-81
2022/09/22 16:51:18;;;;;;;;;;;;;;;;;;5087021;28;19928;-80
2022/09/22 16:53:51;;;;;;;;;;;;;;;;;;5086073;28;20006;-80
2022/09/22 16:56:18;;;;;;;;;;;;;;;;;;5085657;28;19935;-80
2022/09/22 16:58:45;;;;;;;;;;;;;;;;;;5087392;28;19939;-81
2022/09/22 17:01:14;;;;;;;;;;;;;;;;;;5086143;28;19939;-79
2022/09/22 17:03:41;;;;;;;;;;;;;;;;;;5083736;28;20035;-77
2022/09/22 17:06:08;;;;;;;;;;;;;;;;;;5083953;28;19928;-78
2022/09/22 17:08:36;;;;;;;;;;;;;;;;;;5081745;28;19924;-80
2022/09/22 17:11:04;;;;;;;;;;;;;;;;;;5090011;28;19932;-80